New Nada — 3ELP9 — position and weather

sailwx.info

Track history (hours):
 
Tides and Currents Weather Stations Pressure Air Temp Water Temp Dewpoint Dewpoint Depression Visibility Wind Speed Wind Dir Waves Ship Positions

New Nada

Last reported at 2017-Oct-15 13:56 UTC. Time now 2017-Oct-17 08:05 UTC.
Position N 38°10' W 124°42'.

Length 180 m; beam 32.2 m.

Type: Cargo ship. MMSI: 356005000.

Date/timePositionNaut miles runAvg speedWind from/ knotsBaromVisibWave heightAir tempDewpointWater temp
2017-Oct-15 13:56N 38°10' W 124°42'814.8
2017-Oct-15 13:25N 38°10' W 124°33'614.5
2017-Oct-15 13:00N 38°10' W 124°25'714.2
2017-Oct-15 12:30N 38°10' W 124°16'714.5
2017-Oct-15 12:00N 38°10' W 124°07'714.2
2017-Oct-15 11:30N 38°10' W 123°58'714.6
2017-Oct-15 11:00N 38°10' W 123°49'714.8
2017-Oct-15 10:30N 38°10' W 123°39'714.9
2017-Oct-15 10:00N 38°10' W 123°30'714.4
2017-Oct-15 09:30N 38°09' W 123°20'714.6
2017-Oct-15 09:00N 38°04' W 123°14'815.1
2017-Oct-15 08:30N 37°58' W 123°08'815.4
2017-Oct-15 08:00N 37°54' W 122°60'815.6
2017-Oct-15 07:30N 37°51' W 122°51'714.0
2017-Oct-15 07:00N 37°47' W 122°43'5 9.8
2017-Oct-15 06:30N 37°46' W 122°37'714.8
2017-Oct-15 06:01N 37°49' W 122°29'510.0
2017-Oct-15 05:30N 37°54' W 122°26'612.1
2017-Oct-15 05:00N 37°60' W 122°25'611.7
2017-Oct-15 04:30N 38°03' W 122°19'510.4
2017-Oct-15 03:59N 38°04' W 122°12'3 6.2
2017-Oct-15 03:30N 38°02' W 122°09'0 0.1
2017-Oct-15 02:57N 38°02' W 122°09'0 0.0
2017-Oct-15 02:27N 38°02' W 122°09'0 0.2
2017-Oct-15 01:58N 38°02' W 122°09'0 0.2
2017-Oct-15 01:29N 38°02' W 122°09'1 1.2
2017-Oct-15 00:52N 38°02' W 122°08'0 0.0
2017-Oct-15 00:28N 38°02' W 122°08'0 0.0
2017-Oct-14 23:58N 38°02' W 122°08'0 0.1
2017-Oct-14 23:28N 38°02' W 122°08'0 0.1
2017-Oct-14 22:58N 38°02' W 122°08'0 0.1
2017-Oct-14 22:28N 38°02' W 122°08'0 0.1
2017-Oct-14 21:58N 38°02' W 122°08'0 0.0
2017-Oct-14 21:22N 38°02' W 122°08'0 0.1
2017-Oct-14 20:58N 38°02' W 122°08'0 0.1
2017-Oct-14 20:28N 38°02' W 122°08'0 0.0
2017-Oct-14 19:58N 38°02' W 122°08'0 0.0
2017-Oct-14 19:28N 38°02' W 122°08'0 0.0
2017-Oct-14 18:58N 38°02' W 122°08'0 0.0
2017-Oct-14 18:28N 38°02' W 122°08'0 0.0
2017-Oct-14 17:58N 38°02' W 122°08'0 0.0
2017-Oct-14 17:28N 38°02' W 122°08'0 0.0
2017-Oct-14 16:58N 38°02' W 122°08'0 0.1
2017-Oct-14 16:04N 38°02' W 122°08'0 0.5
2017-Oct-14 15:58N 38°02' W 122°08'0 0.1
2017-Oct-14 15:28N 38°02' W 122°08'0 0.0
2017-Oct-14 14:58N 38°02' W 122°08'0 0.0
2017-Oct-14 14:28N 38°02' W 122°08'0 0.5
2017-Oct-14 14:00N 38°02' W 122°08'4 8.4
2017-Oct-14 13:30N 38°04' W 122°13'713.7
2017-Oct-14 13:00N 38°02' W 122°22'714.3
2017-Oct-14 12:30N 37°56' W 122°27'713.0
2017-Oct-14 12:00N 37°50' W 122°24'4 8.9
2017-Oct-14 11:30N 37°49' W 122°30'612.8
2017-Oct-14 11:00N 37°46' W 122°37'3 6.5
2017-Oct-14 10:30N 37°44' W 122°40'3 5.9
2017-Oct-14 10:00N 37°41' W 122°40'3 6.1
2017-Oct-14 09:30N 37°38' W 122°40'5 9.8
2017-Oct-14 09:01N 37°33' W 122°40'5 9.6
2017-Oct-14 08:30N 37°28' W 122°40'5 9.6
2017-Oct-14 08:00N 37°23' W 122°40'4 9.0
2017-Oct-14 07:31N 37°19' W 122°40'5 9.4
2017-Oct-14 07:00N 37°14' W 122°40'5 9.2
2017-Oct-14 06:31N 37°09' W 122°40'5 9.0
2017-Oct-14 06:00N 37°05' W 122°38'5 9.2
2017-Oct-14 05:30N 37°01' W 122°36'510.4
2017-Oct-14 05:00N 36°56' W 122°34'510.8
2017-Oct-14 04:30N 36°51' W 122°32'510.7
2017-Oct-14 04:01N 36°46' W 122°29'510.4
2017-Oct-14 03:30N 36°41' W 122°27'510.6
2017-Oct-14 03:00N 36°36' W 122°24'510.5
2017-Oct-14 02:30N 36°31' W 122°21'510.4
2017-Oct-14 02:00N 36°27' W 122°18'510.7
2017-Oct-14 01:30N 36°22' W 122°15'510.3
2017-Oct-14 01:00N 36°17' W 122°12'510.6
2017-Oct-14 00:30N 36°13' W 122°09'510.7
2017-Oct-14 00:00N 36°08' W 122°06'611.1
2017-Oct-13 23:30N 36°03' W 122°02'611.5
2017-Oct-13 22:59N 35°58' W 121°58'611.8
2017-Oct-13 22:30N 35°53' W 121°55'611.9
2017-Oct-13 22:00N 35°48' W 121°51'612.3
2017-Oct-13 21:30N 35°43' W 121°48'612.0
2017-Oct-13 21:00N 35°38' W 121°44'611.7
2017-Oct-13 20:30N 35°33' W 121°40'711.8
2017-Oct-13 19:54N 35°27' W 121°35'511.7
2017-Oct-13 19:30N 35°23' W 121°32'611.6
2017-Oct-13 19:00N 35°18' W 121°29'612.0
2017-Oct-13 18:30N 35°13' W 121°25'611.8
2017-Oct-13 18:00N 35°07' W 121°22'612.2
2017-Oct-13 17:30N 35°02' W 121°18'612.1
2017-Oct-13 17:00N 34°57' W 121°14'612.2
2017-Oct-13 16:30N 34°52' W 121°10'612.3
2017-Oct-13 16:00N 34°46' W 121°06'612.2
2017-Oct-13 15:30N 34°41' W 121°03'611.9
2017-Oct-13 15:00N 34°36' W 120°59'611.5
2017-Oct-13 14:30N 34°31' W 120°55'611.2
2017-Oct-13 14:00N 34°27' W 120°51'611.2
2017-Oct-13 13:30N 34°25' W 120°45'610.3
2017-Oct-13 12:53N 34°23' W 120°38'410.4
2017-Oct-13 12:30N 34°22' W 120°33'611.1
2017-Oct-13 12:00N 34°20' W 120°26'611.8
2017-Oct-13 11:29N 34°19' W 120°19'612.4
2017-Oct-13 10:59N 34°17' W 120°12'612.1
2017-Oct-13 10:30N 34°16' W 120°05'612.2
2017-Oct-13 10:00N 34°14' W 119°58'612.1
2017-Oct-13 09:30N 34°12' W 119°51'612.2
2017-Oct-13 09:00N 34°11' W 119°44'612.3
2017-Oct-13 08:30N 34°09' W 119°37'612.2
2017-Oct-13 08:00N 34°08' W 119°30'612.2
2017-Oct-13 07:30N 34°06' W 119°23'612.0
2017-Oct-13 07:00N 34°04' W 119°16'612.1
2017-Oct-13 06:30N 34°01' W 119°09'611.8
2017-Oct-13 06:00N 33°58' W 119°03'510.4
2017-Oct-13 05:30N 33°56' W 118°58'511.0
2017-Oct-13 05:00N 33°53' W 118°52'510.7
2017-Oct-13 04:30N 33°50' W 118°46'510.7
2017-Oct-13 04:00N 33°48' W 118°41'510.6
2017-Oct-13 03:29N 33°45' W 118°35'510.5
2017-Oct-13 03:00N 33°42' W 118°30'510.3
2017-Oct-13 02:30N 33°40' W 118°24'510.4
2017-Oct-13 02:00N 33°38' W 118°18'4 8.3
2017-Oct-13 01:30N 33°39' W 118°13'3 6.9
2017-Oct-13 01:00N 33°42' W 118°11'3 6.8
2017-Oct-13 00:31N 33°45' W 118°13'2 3.0
2017-Oct-13 00:00N 33°46' W 118°13'0 0.0
2017-Oct-12 23:29N 33°46' W 118°13'0 0.0
2017-Oct-12 22:59N 33°46' W 118°13'0 0.0
2017-Oct-12 22:26N 33°46' W 118°13'0 0.0
2017-Oct-12 21:38N 33°46' W 118°13'0 0.0
2017-Oct-12 21:26N 33°46' W 118°13'0 0.0
2017-Oct-12 20:56N 33°46' W 118°13'0 0.0
2017-Oct-12 20:26N 33°46' W 118°13'0 0.0
2017-Oct-12 19:56N 33°46' W 118°13'0 0.0
2017-Oct-12 19:20N 33°46' W 118°13'0 0.0
2017-Oct-12 18:56N 33°46' W 118°13'0 0.0
2017-Oct-12 18:26N 33°46' W 118°13'0 0.0
2017-Oct-12 17:59N 33°46' W 118°13'0 0.0
2017-Oct-12 17:26N 33°46' W 118°13'0 0.0
2017-Oct-12 16:44N 33°46' W 118°13'0 0.0
2017-Oct-12 16:29N 33°46' W 118°13'0 0.0
2017-Oct-12 15:56N 33°46' W 118°13'0 0.0
2017-Oct-12 15:29N 33°46' W 118°13'0 0.0
2017-Oct-12 14:59N 33°46' W 118°13'0 0.0
2017-Oct-12 14:29N 33°46' W 118°13'0 0.0
2017-Oct-12 13:47N 33°46' W 118°13'0 0.0
2017-Oct-12 13:23N 33°46' W 118°13'0 0.0
2017-Oct-12 12:56N 33°46' W 118°13'0 0.0
2017-Oct-12 12:17N 33°46' W 118°13'0 0.0
2017-Oct-12 11:53N 33°46' W 118°13'0 0.0
2017-Oct-12 11:29N 33°46' W 118°13'0 0.0
2017-Oct-12 10:53N 33°46' W 118°13'0 0.0
2017-Oct-12 10:29N 33°46' W 118°13'0 0.0
2017-Oct-12 09:59N 33°46' W 118°13'0 0.0
2017-Oct-12 09:29N 33°46' W 118°13'0 0.0
2017-Oct-12 09:00N 33°46' W 118°13'1 1.5
2017-Oct-12 08:30N 33°46' W 118°13'3 6.2
2017-Oct-12 08:00N 33°43' W 118°11'5 9.3
2017-Oct-12 07:30N 33°38' W 118°10'3 5.3
2017-Oct-12 07:00N 33°37' W 118°13'4 7.2
2017-Oct-12 06:30N 33°36' W 118°17'5 9.5
2017-Oct-12 06:00N 33°37' W 118°23'4 8.0
2017-Oct-12 05:30N 33°39' W 118°27'4 7.2
2017-Oct-12 05:00N 33°41' W 118°31'4 7.5
2017-Oct-12 04:30N 33°43' W 118°34'5 9.9
2017-Oct-12 04:00N 33°45' W 118°40'4 7.7
2017-Oct-12 03:30N 33°47' W 118°44'4 7.2
2017-Oct-12 03:00N 33°49' W 118°47'4 7.8
2017-Oct-12 02:30N 33°51' W 118°51'510.4
2017-Oct-12 02:00N 33°53' W 118°57'510.2
2017-Oct-12 01:30N 33°56' W 119°02'510.2
2017-Oct-12 01:00N 33°58' W 119°08'611.6
2017-Oct-12 00:30N 34°01' W 119°14'612.0
2017-Oct-12 00:00N 34°03' W 119°20'612.6
2017-Oct-11 23:30N 34°05' W 119°28'612.1
2017-Oct-11 23:00N 34°07' W 119°35'611.7
2017-Oct-11 22:30N 34°09' W 119°42'612.3
2017-Oct-11 22:00N 34°10' W 119°49'612.1
2017-Oct-11 21:30N 34°12' W 119°56'611.8
2017-Oct-11 21:00N 34°13' W 120°03'611.9
2017-Oct-11 20:29N 34°15' W 120°10'611.8
2017-Oct-11 20:00N 34°16' W 120°17'611.8
2017-Oct-11 19:30N 34°18' W 120°24'612.2
2017-Oct-11 19:00N 34°19' W 120°31'612.0
2017-Oct-11 18:30N 34°21' W 120°38'611.8
2017-Oct-11 18:00N 34°23' W 120°45'611.9
2017-Oct-11 17:30N 34°24' W 120°52'611.5
2017-Oct-11 17:00N 34°25' W 120°58'136 7.7
2017-Oct-10 23:26N 34°25' W 123°43'0 0.7
2017-Oct-10 22:59N 34°25' W 123°43'3 2.8
2017-Oct-10 21:52N 34°24' W 123°47'410.7
2017-Oct-10 21:28N 34°24' W 123°52'713.7
2017-Oct-10 20:57N 34°25' W 124°01'4015.1
2017-Oct-10 18:18N 34°25' W 124°49'  
Track history (hours):
 
Tides and Currents Weather Stations Pressure Air Temp Water Temp Dewpoint Dewpoint Depression Visibility Wind Speed Wind Dir Waves Ship Positions

New Nada

Last reported at 2017-Oct-15 13:56 UTC. Time now 2017-Oct-17 08:05 UTC.
Position N 38°10' W 124°42'.

Length 180 m; beam 32.2 m.

Type: Cargo ship. MMSI: 356005000.

Date/timePositionNaut miles runAvg speedWind from/ knotsBaromVisibWave heightAir tempDewpointWater temp
2017-Oct-15 13:56N 38°10' W 124°42'814.8
2017-Oct-15 13:25N 38°10' W 124°33'614.5
2017-Oct-15 13:00N 38°10' W 124°25'714.2
2017-Oct-15 12:30N 38°10' W 124°16'714.5
2017-Oct-15 12:00N 38°10' W 124°07'714.2
2017-Oct-15 11:30N 38°10' W 123°58'714.6
2017-Oct-15 11:00N 38°10' W 123°49'714.8
2017-Oct-15 10:30N 38°10' W 123°39'714.9
2017-Oct-15 10:00N 38°10' W 123°30'714.4
2017-Oct-15 09:30N 38°09' W 123°20'714.6
2017-Oct-15 09:00N 38°04' W 123°14'815.1
2017-Oct-15 08:30N 37°58' W 123°08'815.4
2017-Oct-15 08:00N 37°54' W 122°60'815.6
2017-Oct-15 07:30N 37°51' W 122°51'714.0
2017-Oct-15 07:00N 37°47' W 122°43'5 9.8
2017-Oct-15 06:30N 37°46' W 122°37'714.8
2017-Oct-15 06:01N 37°49' W 122°29'510.0
2017-Oct-15 05:30N 37°54' W 122°26'612.1
2017-Oct-15 05:00N 37°60' W 122°25'611.7
2017-Oct-15 04:30N 38°03' W 122°19'510.4
2017-Oct-15 03:59N 38°04' W 122°12'3 6.2
2017-Oct-15 03:30N 38°02' W 122°09'0 0.1
2017-Oct-15 02:57N 38°02' W 122°09'0 0.0
2017-Oct-15 02:27N 38°02' W 122°09'0 0.2
2017-Oct-15 01:58N 38°02' W 122°09'0 0.2
2017-Oct-15 01:29N 38°02' W 122°09'1 1.2
2017-Oct-15 00:52N 38°02' W 122°08'0 0.0
2017-Oct-15 00:28N 38°02' W 122°08'0 0.0
2017-Oct-14 23:58N 38°02' W 122°08'0 0.1
2017-Oct-14 23:28N 38°02' W 122°08'0 0.1
2017-Oct-14 22:58N 38°02' W 122°08'0 0.1
2017-Oct-14 22:28N 38°02' W 122°08'0 0.1
2017-Oct-14 21:58N 38°02' W 122°08'0 0.0
2017-Oct-14 21:22N 38°02' W 122°08'0 0.1
2017-Oct-14 20:58N 38°02' W 122°08'0 0.1
2017-Oct-14 20:28N 38°02' W 122°08'0 0.0
2017-Oct-14 19:58N 38°02' W 122°08'0 0.0
2017-Oct-14 19:28N 38°02' W 122°08'0 0.0
2017-Oct-14 18:58N 38°02' W 122°08'0 0.0
2017-Oct-14 18:28N 38°02' W 122°08'0 0.0
2017-Oct-14 17:58N 38°02' W 122°08'0 0.0
2017-Oct-14 17:28N 38°02' W 122°08'0 0.0
2017-Oct-14 16:58N 38°02' W 122°08'0 0.1
2017-Oct-14 16:04N 38°02' W 122°08'0 0.5
2017-Oct-14 15:58N 38°02' W 122°08'0 0.1
2017-Oct-14 15:28N 38°02' W 122°08'0 0.0
2017-Oct-14 14:58N 38°02' W 122°08'0 0.0
2017-Oct-14 14:28N 38°02' W 122°08'0 0.5
2017-Oct-14 14:00N 38°02' W 122°08'4 8.4
2017-Oct-14 13:30N 38°04' W 122°13'713.7
2017-Oct-14 13:00N 38°02' W 122°22'714.3
2017-Oct-14 12:30N 37°56' W 122°27'713.0
2017-Oct-14 12:00N 37°50' W 122°24'4 8.9
2017-Oct-14 11:30N 37°49' W 122°30'612.8
2017-Oct-14 11:00N 37°46' W 122°37'3 6.5
2017-Oct-14 10:30N 37°44' W 122°40'3 5.9
2017-Oct-14 10:00N 37°41' W 122°40'3 6.1
2017-Oct-14 09:30N 37°38' W 122°40'5 9.8
2017-Oct-14 09:01N 37°33' W 122°40'5 9.6
2017-Oct-14 08:30N 37°28' W 122°40'5 9.6
2017-Oct-14 08:00N 37°23' W 122°40'4 9.0
2017-Oct-14 07:31N 37°19' W 122°40'5 9.4
2017-Oct-14 07:00N 37°14' W 122°40'5 9.2
2017-Oct-14 06:31N 37°09' W 122°40'5 9.0
2017-Oct-14 06:00N 37°05' W 122°38'5 9.2
2017-Oct-14 05:30N 37°01' W 122°36'510.4
2017-Oct-14 05:00N 36°56' W 122°34'510.8
2017-Oct-14 04:30N 36°51' W 122°32'510.7
2017-Oct-14 04:01N 36°46' W 122°29'510.4
2017-Oct-14 03:30N 36°41' W 122°27'510.6
2017-Oct-14 03:00N 36°36' W 122°24'510.5
2017-Oct-14 02:30N 36°31' W 122°21'510.4
2017-Oct-14 02:00N 36°27' W 122°18'510.7
2017-Oct-14 01:30N 36°22' W 122°15'510.3
2017-Oct-14 01:00N 36°17' W 122°12'510.6
2017-Oct-14 00:30N 36°13' W 122°09'510.7
2017-Oct-14 00:00N 36°08' W 122°06'611.1
2017-Oct-13 23:30N 36°03' W 122°02'611.5
2017-Oct-13 22:59N 35°58' W 121°58'611.8
2017-Oct-13 22:30N 35°53' W 121°55'611.9
2017-Oct-13 22:00N 35°48' W 121°51'612.3
2017-Oct-13 21:30N 35°43' W 121°48'612.0
2017-Oct-13 21:00N 35°38' W 121°44'611.7
2017-Oct-13 20:30N 35°33' W 121°40'711.8
2017-Oct-13 19:54N 35°27' W 121°35'511.7
2017-Oct-13 19:30N 35°23' W 121°32'611.6
2017-Oct-13 19:00N 35°18' W 121°29'612.0
2017-Oct-13 18:30N 35°13' W 121°25'611.8
2017-Oct-13 18:00N 35°07' W 121°22'612.2
2017-Oct-13 17:30N 35°02' W 121°18'612.1
2017-Oct-13 17:00N 34°57' W 121°14'612.2
2017-Oct-13 16:30N 34°52' W 121°10'612.3
2017-Oct-13 16:00N 34°46' W 121°06'612.2
2017-Oct-13 15:30N 34°41' W 121°03'611.9
2017-Oct-13 15:00N 34°36' W 120°59'611.5
2017-Oct-13 14:30N 34°31' W 120°55'611.2
2017-Oct-13 14:00N 34°27' W 120°51'611.2
2017-Oct-13 13:30N 34°25' W 120°45'610.3
2017-Oct-13 12:53N 34°23' W 120°38'410.4
2017-Oct-13 12:30N 34°22' W 120°33'611.1
2017-Oct-13 12:00N 34°20' W 120°26'611.8
2017-Oct-13 11:29N 34°19' W 120°19'612.4
2017-Oct-13 10:59N 34°17' W 120°12'612.1
2017-Oct-13 10:30N 34°16' W 120°05'612.2
2017-Oct-13 10:00N 34°14' W 119°58'612.1
2017-Oct-13 09:30N 34°12' W 119°51'612.2
2017-Oct-13 09:00N 34°11' W 119°44'612.3
2017-Oct-13 08:30N 34°09' W 119°37'612.2
2017-Oct-13 08:00N 34°08' W 119°30'612.2
2017-Oct-13 07:30N 34°06' W 119°23'612.0
2017-Oct-13 07:00N 34°04' W 119°16'612.1
2017-Oct-13 06:30N 34°01' W 119°09'611.8
2017-Oct-13 06:00N 33°58' W 119°03'510.4
2017-Oct-13 05:30N 33°56' W 118°58'511.0
2017-Oct-13 05:00N 33°53' W 118°52'510.7
2017-Oct-13 04:30N 33°50' W 118°46'510.7
2017-Oct-13 04:00N 33°48' W 118°41'510.6
2017-Oct-13 03:29N 33°45' W 118°35'510.5
2017-Oct-13 03:00N 33°42' W 118°30'510.3
2017-Oct-13 02:30N 33°40' W 118°24'510.4
2017-Oct-13 02:00N 33°38' W 118°18'4 8.3
2017-Oct-13 01:30N 33°39' W 118°13'3 6.9
2017-Oct-13 01:00N 33°42' W 118°11'3 6.8
2017-Oct-13 00:31N 33°45' W 118°13'2 3.0
2017-Oct-13 00:00N 33°46' W 118°13'0 0.0
2017-Oct-12 23:29N 33°46' W 118°13'0 0.0
2017-Oct-12 22:59N 33°46' W 118°13'0 0.0
2017-Oct-12 22:26N 33°46' W 118°13'0 0.0
2017-Oct-12 21:38N 33°46' W 118°13'0 0.0
2017-Oct-12 21:26N 33°46' W 118°13'0 0.0
2017-Oct-12 20:56N 33°46' W 118°13'0 0.0
2017-Oct-12 20:26N 33°46' W 118°13'0 0.0
2017-Oct-12 19:56N 33°46' W 118°13'0 0.0
2017-Oct-12 19:20N 33°46' W 118°13'0 0.0
2017-Oct-12 18:56N 33°46' W 118°13'0 0.0
2017-Oct-12 18:26N 33°46' W 118°13'0 0.0
2017-Oct-12 17:59N 33°46' W 118°13'0 0.0
2017-Oct-12 17:26N 33°46' W 118°13'0 0.0
2017-Oct-12 16:44N 33°46' W 118°13'0 0.0
2017-Oct-12 16:29N 33°46' W 118°13'0 0.0
2017-Oct-12 15:56N 33°46' W 118°13'0 0.0
2017-Oct-12 15:29N 33°46' W 118°13'0 0.0
2017-Oct-12 14:59N 33°46' W 118°13'0 0.0
2017-Oct-12 14:29N 33°46' W 118°13'0 0.0
2017-Oct-12 13:47N 33°46' W 118°13'0 0.0
2017-Oct-12 13:23N 33°46' W 118°13'0 0.0
2017-Oct-12 12:56N 33°46' W 118°13'0 0.0
2017-Oct-12 12:17N 33°46' W 118°13'0 0.0
2017-Oct-12 11:53N 33°46' W 118°13'0 0.0
2017-Oct-12 11:29N 33°46' W 118°13'0 0.0
2017-Oct-12 10:53N 33°46' W 118°13'0 0.0
2017-Oct-12 10:29N 33°46' W 118°13'0 0.0
2017-Oct-12 09:59N 33°46' W 118°13'0 0.0
2017-Oct-12 09:29N 33°46' W 118°13'0 0.0
2017-Oct-12 09:00N 33°46' W 118°13'1 1.5
2017-Oct-12 08:30N 33°46' W 118°13'3 6.2
2017-Oct-12 08:00N 33°43' W 118°11'5 9.3
2017-Oct-12 07:30N 33°38' W 118°10'3 5.3
2017-Oct-12 07:00N 33°37' W 118°13'4 7.2
2017-Oct-12 06:30N 33°36' W 118°17'5 9.5
2017-Oct-12 06:00N 33°37' W 118°23'4 8.0
2017-Oct-12 05:30N 33°39' W 118°27'4 7.2
2017-Oct-12 05:00N 33°41' W 118°31'4 7.5
2017-Oct-12 04:30N 33°43' W 118°34'5 9.9
2017-Oct-12 04:00N 33°45' W 118°40'4 7.7
2017-Oct-12 03:30N 33°47' W 118°44'4 7.2
2017-Oct-12 03:00N 33°49' W 118°47'4 7.8
2017-Oct-12 02:30N 33°51' W 118°51'510.4
2017-Oct-12 02:00N 33°53' W 118°57'510.2
2017-Oct-12 01:30N 33°56' W 119°02'510.2
2017-Oct-12 01:00N 33°58' W 119°08'611.6
2017-Oct-12 00:30N 34°01' W 119°14'612.0
2017-Oct-12 00:00N 34°03' W 119°20'612.6
2017-Oct-11 23:30N 34°05' W 119°28'612.1
2017-Oct-11 23:00N 34°07' W 119°35'611.7
2017-Oct-11 22:30N 34°09' W 119°42'612.3
2017-Oct-11 22:00N 34°10' W 119°49'612.1
2017-Oct-11 21:30N 34°12' W 119°56'611.8
2017-Oct-11 21:00N 34°13' W 120°03'611.9
2017-Oct-11 20:29N 34°15' W 120°10'611.8
2017-Oct-11 20:00N 34°16' W 120°17'611.8
2017-Oct-11 19:30N 34°18' W 120°24'612.2
2017-Oct-11 19:00N 34°19' W 120°31'612.0
2017-Oct-11 18:30N 34°21' W 120°38'611.8
2017-Oct-11 18:00N 34°23' W 120°45'611.9
2017-Oct-11 17:30N 34°24' W 120°52'611.5
2017-Oct-11 17:00N 34°25' W 120°58'136 7.7
2017-Oct-10 23:26N 34°25' W 123°43'0 0.7
2017-Oct-10 22:59N 34°25' W 123°43'3 2.8
2017-Oct-10 21:52N 34°24' W 123°47'410.7
2017-Oct-10 21:28N 34°24' W 123°52'713.7
2017-Oct-10 20:57N 34°25' W 124°01'4015.1
2017-Oct-10 18:18N 34°25' W 124°49'  

Dump ship's entire track history